sensor_id;sensor_type;location;lat;lon;timestamp;P1;durP1;ratioP1;P2;durP2;ratioP2
51082;SDS011;37131;42.694;23.350;2024-01-15T00:02:13;123.47;;;51.45;;
51082;SDS011;37131;42.694;23.350;2024-01-15T00:04:39;123.88;;;48.45;;
51082;SDS011;37131;42.694;23.350;2024-01-15T00:07:06;134.35;;;55.20;;
51082;SDS011;37131;42.694;23.350;2024-01-15T00:09:32;131.60;;;51.78;;
51082;SDS011;37131;42.694;23.350;2024-01-15T00:11:57;139.85;;;53.15;;
51082;SDS011;37131;42.694;23.350;2024-01-15T00:14:23;125.03;;;49.50;;
51082;SDS011;37131;42.694;23.350;2024-01-15T00:16:49;128.10;;;52.03;;
51082;SDS011;37131;42.694;23.350;2024-01-15T00:19:16;137.20;;;57.22;;
51082;SDS011;37131;42.694;23.350;2024-01-15T00:21:44;131.55;;;51.25;;
51082;SDS011;37131;42.694;23.350;2024-01-15T00:24:10;126.70;;;50.92;;
51082;SDS011;37131;42.694;23.350;2024-01-15T00:26:35;129.60;;;49.97;;
51082;SDS011;37131;42.694;23.350;2024-01-15T00:29:01;117.63;;;51.15;;
51082;SDS011;37131;42.694;23.350;2024-01-15T00:31:26;121.68;;;51.92;;
51082;SDS011;37131;42.694;23.350;2024-01-15T00:33:52;131.77;;;55.55;;
51082;SDS011;37131;42.694;23.350;2024-01-15T00:36:17;121.75;;;54.20;;
51082;SDS011;37131;42.694;23.350;2024-01-15T00:38:45;138.70;;;53.17;;
51082;SDS011;37131;42.694;23.350;2024-01-15T00:41:12;138.40;;;55.20;;
51082;SDS011;37131;42.694;23.350;2024-01-15T00:43:38;141.05;;;53.72;;
51082;SDS011;37131;42.694;23.350;2024-01-15T00:46:03;129.45;;;55.95;;
51082;SDS011;37131;42.694;23.350;2024-01-15T00:48:29;138.10;;;55.08;;
51082;SDS011;37131;42.694;23.350;2024-01-15T00:50:54;131.25;;;54.70;;
51082;SDS011;37131;42.694;23.350;2024-01-15T00:53:20;128.85;;;51.78;;
51082;SDS011;37131;42.694;23.350;2024-01-15T00:55:47;135.15;;;56.22;;
51082;SDS011;37131;42.694;23.350;2024-01-15T00:58:13;129.63;;;55.00;;
51082;SDS011;37131;42.694;23.350;2024-01-15T01:00:38;151.88;;;58.97;;
51082;SDS011;37131;42.694;23.350;2024-01-15T01:03:04;126.03;;;56.95;;
51082;SDS011;37131;42.694;23.350;2024-01-15T01:05:29;147.98;;;57.53;;
51082;SDS011;37131;42.694;23.350;2024-01-15T01:07:54;121.25;;;53.05;;
51082;SDS011;37131;42.694;23.350;2024-01-15T01:10:20;139.98;;;53.22;;
51082;SDS011;37131;42.694;23.350;2024-01-15T01:12:45;118.18;;;48.20;;
51082;SDS011;37131;42.694;23.350;2024-01-15T01:15:10;136.68;;;53.70;;
51082;SDS011;37131;42.694;23.350;2024-01-15T01:17:36;123.68;;;50.78;;
51082;SDS011;37131;42.694;23.350;2024-01-15T01:20:01;125.82;;;52.10;;
51082;SDS011;37131;42.694;23.350;2024-01-15T01:24:54;99.70;;;40.10;;
51082;SDS011;37131;42.694;23.350;2024-01-15T01:27:20;121.93;;;47.80;;
51082;SDS011;37131;42.694;23.350;2024-01-15T01:29:45;98.25;;;44.63;;
51082;SDS011;37131;42.694;23.350;2024-01-15T01:32:10;112.25;;;44.08;;
51082;SDS011;37131;42.694;23.350;2024-01-15T01:34:39;123.50;;;47.50;;
51082;SDS011;37131;42.694;23.350;2024-01-15T01:37:09;116.65;;;48.78;;
51082;SDS011;37131;42.694;23.350;2024-01-15T01:39:35;123.18;;;47.35;;
51082;SDS011;37131;42.694;23.350;2024-01-15T01:42:00;109.25;;;45.60;;
51082;SDS011;37131;42.694;23.350;2024-01-15T01:44:26;107.25;;;44.08;;
51082;SDS011;37131;42.694;23.350;2024-01-15T01:46:51;112.10;;;46.15;;
51082;SDS011;37131;42.694;23.350;2024-01-15T01:49:17;118.32;;;46.17;;
51082;SDS011;37131;42.694;23.350;2024-01-15T01:51:43;109.75;;;43.60;;
51082;SDS011;37131;42.694;23.350;2024-01-15T01:54:09;104.85;;;41.13;;
51082;SDS011;37131;42.694;23.350;2024-01-15T01:56:38;104.35;;;44.67;;
51082;SDS011;37131;42.694;23.350;2024-01-15T01:59:05;101.85;;;41.35;;
51082;SDS011;37131;42.694;23.350;2024-01-15T02:01:32;105.10;;;43.17;;
51082;SDS011;37131;42.694;23.350;2024-01-15T02:03:57;99.95;;;40.53;;
51082;SDS011;37131;42.694;23.350;2024-01-15T02:06:23;107.65;;;42.95;;
51082;SDS011;37131;42.694;23.350;2024-01-15T02:08:49;97.10;;;45.97;;
51082;SDS011;37131;42.694;23.350;2024-01-15T02:11:15;107.65;;;42.45;;
51082;SDS011;37131;42.694;23.350;2024-01-15T02:13:40;88.43;;;37.20;;
51082;SDS011;37131;42.694;23.350;2024-01-15T02:16:06;103.93;;;40.92;;
51082;SDS011;37131;42.694;23.350;2024-01-15T02:18:41;101.05;;;43.30;;
51082;SDS011;37131;42.694;23.350;2024-01-15T02:21:07;92.43;;;37.58;;
51082;SDS011;37131;42.694;23.350;2024-01-15T02:23:33;112.50;;;47.05;;
51082;SDS011;37131;42.694;23.350;2024-01-15T02:25:58;112.38;;;46.40;;
51082;SDS011;37131;42.694;23.350;2024-01-15T02:28:23;112.70;;;43.00;;
51082;SDS011;37131;42.694;23.350;2024-01-15T02:30:49;124.60;;;45.95;;
51082;SDS011;37131;42.694;23.350;2024-01-15T02:33:14;125.32;;;49.00;;
51082;SDS011;37131;42.694;23.350;2024-01-15T02:35:40;145.55;;;56.53;;
51082;SDS011;37131;42.694;23.350;2024-01-15T02:38:06;118.10;;;47.85;;
51082;SDS011;37131;42.694;23.350;2024-01-15T02:40:32;142.80;;;52.85;;
51082;SDS011;37131;42.694;23.350;2024-01-15T02:42:59;66.35;;;33.38;;
51082;SDS011;37131;42.694;23.350;2024-01-15T02:45:24;89.43;;;35.63;;
51082;SDS011;37131;42.694;23.350;2024-01-15T02:47:50;119.68;;;44.63;;
51082;SDS011;37131;42.694;23.350;2024-01-15T02:50:15;51.83;;;23.83;;
51082;SDS011;37131;42.694;23.350;2024-01-15T02:52:41;96.47;;;41.38;;
51082;SDS011;37131;42.694;23.350;2024-01-15T02:55:06;96.63;;;36.95;;
51082;SDS011;37131;42.694;23.350;2024-01-15T02:57:32;68.07;;;29.17;;
51082;SDS011;37131;42.694;23.350;2024-01-15T02:59:57;66.13;;;28.55;;
51082;SDS011;37131;42.694;23.350;2024-01-15T03:02:22;76.82;;;30.48;;
51082;SDS011;37131;42.694;23.350;2024-01-15T03:04:48;69.25;;;26.10;;
51082;SDS011;37131;42.694;23.350;2024-01-15T03:07:13;75.05;;;30.85;;
51082;SDS011;37131;42.694;23.350;2024-01-15T03:09:39;46.88;;;18.92;;
51082;SDS011;37131;42.694;23.350;2024-01-15T03:12:04;42.35;;;17.95;;
51082;SDS011;37131;42.694;23.350;2024-01-15T03:14:30;45.53;;;21.33;;
51082;SDS011;37131;42.694;23.350;2024-01-15T03:16:56;43.63;;;16.65;;
51082;SDS011;37131;42.694;23.350;2024-01-15T03:19:21;49.83;;;18.92;;
51082;SDS011;37131;42.694;23.350;2024-01-15T03:21:47;38.45;;;16.27;;
51082;SDS011;37131;42.694;23.350;2024-01-15T03:24:12;40.97;;;16.67;;
51082;SDS011;37131;42.694;23.350;2024-01-15T03:26:38;42.72;;;17.85;;
51082;SDS011;37131;42.694;23.350;2024-01-15T03:29:04;32.50;;;15.50;;
51082;SDS011;37131;42.694;23.350;2024-01-15T03:31:29;44.60;;;18.45;;
51082;SDS011;37131;42.694;23.350;2024-01-15T03:33:55;37.42;;;17.13;;
51082;SDS011;37131;42.694;23.350;2024-01-15T03:36:21;41.13;;;15.95;;
51082;SDS011;37131;42.694;23.350;2024-01-15T03:38:47;44.35;;;18.73;;
51082;SDS011;37131;42.694;23.350;2024-01-15T03:41:12;35.17;;;13.18;;
51082;SDS011;37131;42.694;23.350;2024-01-15T03:43:37;31.75;;;14.25;;
51082;SDS011;37131;42.694;23.350;2024-01-15T03:46:03;31.40;;;13.27;;
51082;SDS011;37131;42.694;23.350;2024-01-15T03:48:29;36.40;;;17.45;;
51082;SDS011;37131;42.694;23.350;2024-01-15T03:50:55;31.17;;;13.80;;
51082;SDS011;37131;42.694;23.350;2024-01-15T03:53:20;48.55;;;15.55;;
51082;SDS011;37131;42.694;23.350;2024-01-15T03:55:45;38.78;;;17.55;;
51082;SDS011;37131;42.694;23.350;2024-01-15T03:58:11;4.90;;;4.55;;
51082;SDS011;37131;42.694;23.350;2024-01-15T04:00:36;32.85;;;14.45;;
51082;SDS011;37131;42.694;23.350;2024-01-15T04:03:02;43.58;;;15.48;;
51082;SDS011;37131;42.694;23.350;2024-01-15T04:05:27;35.17;;;16.48;;
51082;SDS011;37131;42.694;23.350;2024-01-15T04:07:53;34.38;;;14.63;;
51082;SDS011;37131;42.694;23.350;2024-01-15T04:10:18;35.85;;;15.85;;
51082;SDS011;37131;42.694;23.350;2024-01-15T04:12:44;29.73;;;13.73;;
51082;SDS011;37131;42.694;23.350;2024-01-15T04:15:11;30.02;;;13.27;;
51082;SDS011;37131;42.694;23.350;2024-01-15T04:17:37;27.38;;;11.65;;
51082;SDS011;37131;42.694;23.350;2024-01-15T04:20:03;35.20;;;15.32;;
51082;SDS011;37131;42.694;23.350;2024-01-15T04:22:28;36.90;;;14.55;;
51082;SDS011;37131;42.694;23.350;2024-01-15T04:24:54;35.83;;;14.82;;
51082;SDS011;37131;42.694;23.350;2024-01-15T04:27:19;28.55;;;13.63;;
51082;SDS011;37131;42.694;23.350;2024-01-15T04:29:44;27.25;;;10.88;;
51082;SDS011;37131;42.694;23.350;2024-01-15T04:32:10;27.88;;;14.32;;
51082;SDS011;37131;42.694;23.350;2024-01-15T04:34:35;38.45;;;15.95;;
51082;SDS011;37131;42.694;23.350;2024-01-15T04:37:01;35.67;;;15.13;;
51082;SDS011;37131;42.694;23.350;2024-01-15T04:39:26;30.23;;;12.13;;
51082;SDS011;37131;42.694;23.350;2024-01-15T04:41:52;33.67;;;16.55;;
51082;SDS011;37131;42.694;23.350;2024-01-15T04:44:18;39.00;;;14.13;;
51082;SDS011;37131;42.694;23.350;2024-01-15T04:46:43;29.83;;;14.32;;
51082;SDS011;37131;42.694;23.350;2024-01-15T04:49:09;35.55;;;13.77;;
51082;SDS011;37131;42.694;23.350;2024-01-15T04:51:34;29.27;;;13.20;;
51082;SDS011;37131;42.694;23.350;2024-01-15T04:54:00;31.38;;;14.88;;
51082;SDS011;37131;42.694;23.350;2024-01-15T04:56:25;35.72;;;15.65;;
51082;SDS011;37131;42.694;23.350;2024-01-15T04:58:51;34.00;;;15.45;;
51082;SDS011;37131;42.694;23.350;2024-01-15T05:01:16;27.38;;;12.63;;
51082;SDS011;37131;42.694;23.350;2024-01-15T05:03:42;37.22;;;15.18;;
51082;SDS011;37131;42.694;23.350;2024-01-15T05:06:07;36.60;;;17.05;;
51082;SDS011;37131;42.694;23.350;2024-01-15T05:08:33;38.80;;;17.77;;
51082;SDS011;37131;42.694;23.350;2024-01-15T05:10:58;41.90;;;16.65;;
51082;SDS011;37131;42.694;23.350;2024-01-15T05:13:24;51.30;;;20.52;;
51082;SDS011;37131;42.694;23.350;2024-01-15T05:15:49;59.42;;;22.25;;
51082;SDS011;37131;42.694;23.350;2024-01-15T05:18:15;82.22;;;29.75;;
51082;SDS011;37131;42.694;23.350;2024-01-15T05:20:40;35.22;;;16.83;;
51082;SDS011;37131;42.694;23.350;2024-01-15T05:23:07;47.40;;;19.05;;
51082;SDS011;37131;42.694;23.350;2024-01-15T05:25:32;42.67;;;18.27;;
51082;SDS011;37131;42.694;23.350;2024-01-15T05:27:58;52.53;;;23.55;;
51082;SDS011;37131;42.694;23.350;2024-01-15T05:30:23;48.38;;;19.90;;
51082;SDS011;37131;42.694;23.350;2024-01-15T05:32:48;41.17;;;17.02;;
51082;SDS011;37131;42.694;23.350;2024-01-15T05:35:14;47.45;;;18.58;;
51082;SDS011;37131;42.694;23.350;2024-01-15T05:37:43;51.25;;;20.63;;
51082;SDS011;37131;42.694;23.350;2024-01-15T05:40:10;44.03;;;20.83;;
51082;SDS011;37131;42.694;23.350;2024-01-15T05:42:36;44.83;;;19.08;;
51082;SDS011;37131;42.694;23.350;2024-01-15T05:45:02;46.70;;;20.73;;
51082;SDS011;37131;42.694;23.350;2024-01-15T05:47:30;51.38;;;22.65;;
51082;SDS011;37131;42.694;23.350;2024-01-15T05:49:58;51.08;;;22.67;;
51082;SDS011;37131;42.694;23.350;2024-01-15T05:52:23;50.97;;;18.90;;
51082;SDS011;37131;42.694;23.350;2024-01-15T05:54:49;49.38;;;18.42;;
51082;SDS011;37131;42.694;23.350;2024-01-15T05:57:15;42.95;;;21.00;;
51082;SDS011;37131;42.694;23.350;2024-01-15T05:59:41;38.92;;;18.90;;
51082;SDS011;37131;42.694;23.350;2024-01-15T06:02:07;46.58;;;20.13;;
51082;SDS011;37131;42.694;23.350;2024-01-15T06:04:33;45.78;;;20.80;;
51082;SDS011;37131;42.694;23.350;2024-01-15T06:06:58;44.83;;;20.98;;
51082;SDS011;37131;42.694;23.350;2024-01-15T06:09:23;45.50;;;20.35;;
51082;SDS011;37131;42.694;23.350;2024-01-15T06:11:49;46.60;;;19.52;;
51082;SDS011;37131;42.694;23.350;2024-01-15T06:14:14;47.72;;;19.52;;
51082;SDS011;37131;42.694;23.350;2024-01-15T06:16:40;48.17;;;21.15;;
51082;SDS011;37131;42.694;23.350;2024-01-15T06:19:05;48.35;;;21.55;;
51082;SDS011;37131;42.694;23.350;2024-01-15T06:21:30;48.38;;;20.40;;
51082;SDS011;37131;42.694;23.350;2024-01-15T06:23:56;25.45;;;13.80;;
51082;SDS011;37131;42.694;23.350;2024-01-15T06:26:22;47.10;;;22.83;;
51082;SDS011;37131;42.694;23.350;2024-01-15T06:28:47;54.20;;;23.02;;
51082;SDS011;37131;42.694;23.350;2024-01-15T06:31:13;47.50;;;23.27;;
51082;SDS011;37131;42.694;23.350;2024-01-15T06:33:38;54.17;;;22.85;;
51082;SDS011;37131;42.694;23.350;2024-01-15T06:36:04;52.42;;;23.45;;
51082;SDS011;37131;42.694;23.350;2024-01-15T06:38:30;56.92;;;27.55;;
51082;SDS011;37131;42.694;23.350;2024-01-15T06:40:55;52.75;;;21.50;;
51082;SDS011;37131;42.694;23.350;2024-01-15T06:43:21;58.28;;;25.00;;
51082;SDS011;37131;42.694;23.350;2024-01-15T06:45:47;49.90;;;20.52;;
51082;SDS011;37131;42.694;23.350;2024-01-15T06:48:12;51.45;;;22.75;;
51082;SDS011;37131;42.694;23.350;2024-01-15T06:50:39;50.03;;;22.10;;
51082;SDS011;37131;42.694;23.350;2024-01-15T06:53:05;45.95;;;22.65;;
51082;SDS011;37131;42.694;23.350;2024-01-15T06:55:31;41.83;;;23.70;;
51082;SDS011;37131;42.694;23.350;2024-01-15T06:57:56;50.40;;;28.83;;
51082;SDS011;37131;42.694;23.350;2024-01-15T07:00:21;62.53;;;25.38;;
51082;SDS011;37131;42.694;23.350;2024-01-15T07:02:47;64.70;;;27.30;;
51082;SDS011;37131;42.694;23.350;2024-01-15T07:05:12;56.13;;;26.35;;
51082;SDS011;37131;42.694;23.350;2024-01-15T07:07:38;62.30;;;28.17;;
51082;SDS011;37131;42.694;23.350;2024-01-15T07:10:03;55.17;;;25.63;;
51082;SDS011;37131;42.694;23.350;2024-01-15T07:12:30;66.18;;;28.48;;
51082;SDS011;37131;42.694;23.350;2024-01-15T07:14:58;53.38;;;26.25;;
51082;SDS011;37131;42.694;23.350;2024-01-15T07:17:23;62.50;;;28.30;;
51082;SDS011;37131;42.694;23.350;2024-01-15T07:19:48;64.95;;;28.10;;
51082;SDS011;37131;42.694;23.350;2024-01-15T07:22:14;68.80;;;29.20;;
51082;SDS011;37131;42.694;23.350;2024-01-15T07:24:42;69.07;;;26.58;;
51082;SDS011;37131;42.694;23.350;2024-01-15T07:27:08;59.15;;;26.88;;
51082;SDS011;37131;42.694;23.350;2024-01-15T07:29:34;55.70;;;25.50;;
51082;SDS011;37131;42.694;23.350;2024-01-15T07:32:01;66.10;;;27.42;;
51082;SDS011;37131;42.694;23.350;2024-01-15T07:34:27;62.47;;;27.67;;
51082;SDS011;37131;42.694;23.350;2024-01-15T07:36:52;34.90;;;16.80;;
51082;SDS011;37131;42.694;23.350;2024-01-15T07:39:17;72.82;;;36.35;;
51082;SDS011;37131;42.694;23.350;2024-01-15T07:41:43;78.05;;;34.85;;
51082;SDS011;37131;42.694;23.350;2024-01-15T07:44:09;74.90;;;28.92;;
51082;SDS011;37131;42.694;23.350;2024-01-15T07:46:34;72.03;;;32.53;;
51082;SDS011;37131;42.694;23.350;2024-01-15T07:48:59;71.15;;;28.42;;
51082;SDS011;37131;42.694;23.350;2024-01-15T07:51:25;73.55;;;32.83;;
51082;SDS011;37131;42.694;23.350;2024-01-15T07:53:53;51.42;;;23.25;;
51082;SDS011;37131;42.694;23.350;2024-01-15T07:56:20;71.85;;;33.40;;
51082;SDS011;37131;42.694;23.350;2024-01-15T07:58:46;82.97;;;34.75;;
51082;SDS011;37131;42.694;23.350;2024-01-15T08:01:12;92.43;;;35.60;;
51082;SDS011;37131;42.694;23.350;2024-01-15T08:03:37;84.68;;;41.47;;
51082;SDS011;37131;42.694;23.350;2024-01-15T08:06:02;86.50;;;40.00;;
51082;SDS011;37131;42.694;23.350;2024-01-15T08:08:28;75.68;;;36.45;;
51082;SDS011;37131;42.694;23.350;2024-01-15T08:10:53;75.07;;;38.17;;
51082;SDS011;37131;42.694;23.350;2024-01-15T08:13:19;167.05;;;60.13;;
51082;SDS011;37131;42.694;23.350;2024-01-15T08:15:45;131.70;;;60.50;;
51082;SDS011;37131;42.694;23.350;2024-01-15T08:18:11;128.10;;;60.42;;
51082;SDS011;37131;42.694;23.350;2024-01-15T08:20:37;123.43;;;58.13;;
51082;SDS011;37131;42.694;23.350;2024-01-15T08:23:02;164.32;;;65.72;;
51082;SDS011;37131;42.694;23.350;2024-01-15T08:25:28;110.50;;;47.65;;
51082;SDS011;37131;42.694;23.350;2024-01-15T08:27:54;117.32;;;49.55;;
51082;SDS011;37131;42.694;23.350;2024-01-15T08:30:20;125.93;;;59.35;;
51082;SDS011;37131;42.694;23.350;2024-01-15T08:32:46;125.85;;;59.38;;
51082;SDS011;37131;42.694;23.350;2024-01-15T08:35:11;119.95;;;51.92;;
51082;SDS011;37131;42.694;23.350;2024-01-15T08:37:37;110.70;;;52.15;;
51082;SDS011;37131;42.694;23.350;2024-01-15T08:40:03;139.23;;;54.10;;
51082;SDS011;37131;42.694;23.350;2024-01-15T08:42:29;127.65;;;51.70;;
51082;SDS011;37131;42.694;23.350;2024-01-15T08:44:54;106.03;;;47.88;;
51082;SDS011;37131;42.694;23.350;2024-01-15T08:47:19;130.93;;;51.25;;
51082;SDS011;37131;42.694;23.350;2024-01-15T08:49:45;110.13;;;51.35;;
51082;SDS011;37131;42.694;23.350;2024-01-15T08:52:11;99.00;;;46.67;;
51082;SDS011;37131;42.694;23.350;2024-01-15T08:54:36;95.45;;;44.58;;
51082;SDS011;37131;42.694;23.350;2024-01-15T08:57:02;96.03;;;42.70;;
51082;SDS011;37131;42.694;23.350;2024-01-15T08:59:27;84.68;;;42.92;;
51082;SDS011;37131;42.694;23.350;2024-01-15T09:01:53;51.97;;;25.02;;
51082;SDS011;37131;42.694;23.350;2024-01-15T09:04:18;82.03;;;42.70;;
51082;SDS011;37131;42.694;23.350;2024-01-15T09:06:45;85.40;;;40.38;;
51082;SDS011;37131;42.694;23.350;2024-01-15T09:09:12;68.78;;;31.83;;
51082;SDS011;37131;42.694;23.350;2024-01-15T09:11:37;68.57;;;32.45;;
51082;SDS011;37131;42.694;23.350;2024-01-15T09:14:03;66.93;;;32.38;;
51082;SDS011;37131;42.694;23.350;2024-01-15T09:16:28;67.70;;;34.17;;
51082;SDS011;37131;42.694;23.350;2024-01-15T09:18:54;64.10;;;33.35;;
51082;SDS011;37131;42.694;23.350;2024-01-15T09:21:21;34.90;;;18.05;;
51082;SDS011;37131;42.694;23.350;2024-01-15T09:23:47;51.22;;;27.67;;
51082;SDS011;37131;42.694;23.350;2024-01-15T09:26:12;62.60;;;26.85;;
51082;SDS011;37131;42.694;23.350;2024-01-15T09:28:38;59.03;;;30.42;;
51082;SDS011;37131;42.694;23.350;2024-01-15T09:31:03;67.65;;;33.28;;
51082;SDS011;37131;42.694;23.350;2024-01-15T09:33:28;23.73;;;13.40;;
51082;SDS011;37131;42.694;23.350;2024-01-15T09:35:54;57.15;;;26.40;;
51082;SDS011;37131;42.694;23.350;2024-01-15T09:38:19;49.17;;;23.48;;
51082;SDS011;37131;42.694;23.350;2024-01-15T09:40:45;62.53;;;32.15;;
51082;SDS011;37131;42.694;23.350;2024-01-15T09:43:12;53.80;;;27.02;;
51082;SDS011;37131;42.694;23.350;2024-01-15T09:45:39;61.15;;;30.35;;
51082;SDS011;37131;42.694;23.350;2024-01-15T09:48:05;78.15;;;35.88;;
51082;SDS011;37131;42.694;23.350;2024-01-15T09:50:31;72.88;;;33.40;;
51082;SDS011;37131;42.694;23.350;2024-01-15T09:52:56;76.63;;;35.53;;
51082;SDS011;37131;42.694;23.350;2024-01-15T09:55:22;66.88;;;34.38;;
51082;SDS011;37131;42.694;23.350;2024-01-15T09:57:48;79.40;;;37.20;;
51082;SDS011;37131;42.694;23.350;2024-01-15T10:00:17;68.95;;;34.80;;
51082;SDS011;37131;42.694;23.350;2024-01-15T10:02:43;71.20;;;33.22;;
51082;SDS011;37131;42.694;23.350;2024-01-15T10:05:08;75.47;;;33.97;;
51082;SDS011;37131;42.694;23.350;2024-01-15T10:07:35;67.30;;;32.03;;
51082;SDS011;37131;42.694;23.350;2024-01-15T10:10:02;62.63;;;28.48;;
51082;SDS011;37131;42.694;23.350;2024-01-15T10:12:28;74.57;;;34.38;;
51082;SDS011;37131;42.694;23.350;2024-01-15T10:14:54;85.10;;;36.28;;
51082;SDS011;37131;42.694;23.350;2024-01-15T10:17:21;102.65;;;42.28;;
51082;SDS011;37131;42.694;23.350;2024-01-15T10:19:46;80.60;;;34.28;;
51082;SDS011;37131;42.694;23.350;2024-01-15T10:22:13;75.00;;;34.78;;
51082;SDS011;37131;42.694;23.350;2024-01-15T10:24:40;70.63;;;30.17;;
51082;SDS011;37131;42.694;23.350;2024-01-15T10:27:06;67.30;;;30.15;;
51082;SDS011;37131;42.694;23.350;2024-01-15T10:29:35;79.00;;;32.08;;
51082;SDS011;37131;42.694;23.350;2024-01-15T10:32:02;74.32;;;31.58;;
51082;SDS011;37131;42.694;23.350;2024-01-15T10:34:28;68.20;;;29.95;;
51082;SDS011;37131;42.694;23.350;2024-01-15T10:36:53;82.38;;;36.03;;
51082;SDS011;37131;42.694;23.350;2024-01-15T10:39:22;82.60;;;33.03;;
51082;SDS011;37131;42.694;23.350;2024-01-15T10:41:48;55.35;;;21.80;;
51082;SDS011;37131;42.694;23.350;2024-01-15T10:44:16;69.88;;;33.50;;
51082;SDS011;37131;42.694;23.350;2024-01-15T10:46:44;73.43;;;30.48;;
51082;SDS011;37131;42.694;23.350;2024-01-15T10:49:11;70.10;;;35.42;;
51082;SDS011;37131;42.694;23.350;2024-01-15T10:51:39;59.25;;;28.85;;
51082;SDS011;37131;42.694;23.350;2024-01-15T10:56:36;48.22;;;21.42;;
51082;SDS011;37131;42.694;23.350;2024-01-15T10:59:02;58.72;;;25.70;;
51082;SDS011;37131;42.694;23.350;2024-01-15T11:01:29;60.75;;;29.17;;
51082;SDS011;37131;42.694;23.350;2024-01-15T11:03:56;55.28;;;27.73;;
51082;SDS011;37131;42.694;23.350;2024-01-15T11:06:24;53.72;;;24.63;;
51082;SDS011;37131;42.694;23.350;2024-01-15T11:08:52;55.47;;;26.55;;
51082;SDS011;37131;42.694;23.350;2024-01-15T11:11:19;50.47;;;23.92;;
51082;SDS011;37131;42.694;23.350;2024-01-15T11:13:46;51.03;;;22.98;;
51082;SDS011;37131;42.694;23.350;2024-01-15T11:16:15;42.50;;;21.88;;
51082;SDS011;37131;42.694;23.350;2024-01-15T11:19:01;48.22;;;20.40;;
51082;SDS011;37131;42.694;23.350;2024-01-15T11:21:27;38.75;;;21.02;;
51082;SDS011;37131;42.694;23.350;2024-01-15T11:23:58;36.85;;;18.58;;
51082;SDS011;37131;42.694;23.350;2024-01-15T11:26:37;38.50;;;17.83;;
51082;SDS011;37131;42.694;23.350;2024-01-15T11:31:56;38.42;;;16.55;;
51082;SDS011;37131;42.694;23.350;2024-01-15T11:34:49;37.55;;;17.80;;
51082;SDS011;37131;42.694;23.350;2024-01-15T11:37:28;36.28;;;15.90;;
51082;SDS011;37131;42.694;23.350;2024-01-15T11:40:13;35.67;;;19.30;;
51082;SDS011;37131;42.694;23.350;2024-01-15T11:42:44;31.13;;;15.23;;
51082;SDS011;37131;42.694;23.350;2024-01-15T11:45:10;38.65;;;18.50;;
51082;SDS011;37131;42.694;23.350;2024-01-15T11:50:26;31.52;;;17.42;;
51082;SDS011;37131;42.694;23.350;2024-01-15T11:53:02;37.42;;;17.65;;
51082;SDS011;37131;42.694;23.350;2024-01-15T11:55:34;33.70;;;18.50;;
51082;SDS011;37131;42.694;23.350;2024-01-15T11:58:02;36.80;;;16.42;;
51082;SDS011;37131;42.694;23.350;2024-01-15T12:00:31;35.92;;;15.68;;
51082;SDS011;37131;42.694;23.350;2024-01-15T12:02:58;30.65;;;17.48;;
51082;SDS011;37131;42.694;23.350;2024-01-15T12:05:23;32.60;;;15.13;;
51082;SDS011;37131;42.694;23.350;2024-01-15T12:07:49;34.42;;;17.02;;
51082;SDS011;37131;42.694;23.350;2024-01-15T12:10:16;28.55;;;15.80;;
51082;SDS011;37131;42.694;23.350;2024-01-15T12:15:31;37.80;;;20.40;;
51082;SDS011;37131;42.694;23.350;2024-01-15T12:18:00;37.25;;;18.15;;
51082;SDS011;37131;42.694;23.350;2024-01-15T12:20:28;35.65;;;17.35;;
51082;SDS011;37131;42.694;23.350;2024-01-15T12:22:54;46.80;;;19.65;;
51082;SDS011;37131;42.694;23.350;2024-01-15T12:25:20;39.53;;;19.75;;
51082;SDS011;37131;42.694;23.350;2024-01-15T12:27:46;43.15;;;20.48;;
51082;SDS011;37131;42.694;23.350;2024-01-15T12:30:15;49.42;;;22.50;;
51082;SDS011;37131;42.694;23.350;2024-01-15T12:32:41;39.50;;;17.65;;
51082;SDS011;37131;42.694;23.350;2024-01-15T12:35:07;45.85;;;21.75;;
51082;SDS011;37131;42.694;23.350;2024-01-15T12:37:34;47.95;;;22.40;;
51082;SDS011;37131;42.694;23.350;2024-01-15T12:40:00;46.38;;;23.42;;
51082;SDS011;37131;42.694;23.350;2024-01-15T12:42:27;45.15;;;22.42;;
51082;SDS011;37131;42.694;23.350;2024-01-15T12:44:55;45.70;;;21.55;;
51082;SDS011;37131;42.694;23.350;2024-01-15T12:47:21;48.75;;;25.02;;
51082;SDS011;37131;42.694;23.350;2024-01-15T12:49:47;45.40;;;23.50;;
51082;SDS011;37131;42.694;23.350;2024-01-15T12:52:18;46.47;;;23.20;;
51082;SDS011;37131;42.694;23.350;2024-01-15T12:54:44;45.33;;;22.65;;
51082;SDS011;37131;42.694;23.350;2024-01-15T12:57:09;41.70;;;20.88;;
51082;SDS011;37131;42.694;23.350;2024-01-15T12:59:35;41.80;;;20.63;;
51082;SDS011;37131;42.694;23.350;2024-01-15T13:02:00;42.38;;;20.23;;
51082;SDS011;37131;42.694;23.350;2024-01-15T13:04:26;48.17;;;21.23;;
51082;SDS011;37131;42.694;23.350;2024-01-15T13:06:52;39.63;;;18.65;;
51082;SDS011;37131;42.694;23.350;2024-01-15T13:09:18;36.38;;;18.65;;
51082;SDS011;37131;42.694;23.350;2024-01-15T13:11:46;38.15;;;19.42;;
51082;SDS011;37131;42.694;23.350;2024-01-15T13:14:12;47.50;;;23.50;;
51082;SDS011;37131;42.694;23.350;2024-01-15T13:16:41;36.75;;;21.55;;
51082;SDS011;37131;42.694;23.350;2024-01-15T13:19:09;43.10;;;21.00;;
51082;SDS011;37131;42.694;23.350;2024-01-15T13:21:36;40.50;;;19.48;;
51082;SDS011;37131;42.694;23.350;2024-01-15T13:24:02;34.60;;;20.85;;
51082;SDS011;37131;42.694;23.350;2024-01-15T13:26:30;36.47;;;18.23;;
51082;SDS011;37131;42.694;23.350;2024-01-15T13:28:56;43.55;;;20.95;;
51082;SDS011;37131;42.694;23.350;2024-01-15T13:31:23;38.53;;;20.20;;
51082;SDS011;37131;42.694;23.350;2024-01-15T13:33:48;40.78;;;19.08;;
51082;SDS011;37131;42.694;23.350;2024-01-15T13:36:14;39.83;;;20.23;;
51082;SDS011;37131;42.694;23.350;2024-01-15T13:38:39;38.85;;;20.27;;
51082;SDS011;37131;42.694;23.350;2024-01-15T13:41:05;38.20;;;19.45;;
51082;SDS011;37131;42.694;23.350;2024-01-15T13:43:33;40.17;;;18.75;;
51082;SDS011;37131;42.694;23.350;2024-01-15T13:45:59;38.03;;;18.48;;
51082;SDS011;37131;42.694;23.350;2024-01-15T13:48:25;38.65;;;17.67;;
51082;SDS011;37131;42.694;23.350;2024-01-15T13:50:51;39.80;;;20.98;;
51082;SDS011;37131;42.694;23.350;2024-01-15T13:53:17;36.28;;;19.23;;
51082;SDS011;37131;42.694;23.350;2024-01-15T13:55:44;35.08;;;19.05;;
51082;SDS011;37131;42.694;23.350;2024-01-15T13:58:09;37.83;;;17.75;;
51082;SDS011;37131;42.694;23.350;2024-01-15T14:00:35;43.72;;;20.48;;
51082;SDS011;37131;42.694;23.350;2024-01-15T14:03:00;40.25;;;20.90;;
51082;SDS011;37131;42.694;23.350;2024-01-15T14:05:26;42.50;;;19.23;;
51082;SDS011;37131;42.694;23.350;2024-01-15T14:07:51;42.90;;;20.38;;
51082;SDS011;37131;42.694;23.350;2024-01-15T14:10:17;39.78;;;20.35;;
51082;SDS011;37131;42.694;23.350;2024-01-15T14:12:42;49.10;;;20.20;;
51082;SDS011;37131;42.694;23.350;2024-01-15T14:15:08;37.33;;;19.63;;